createdAt,value
2023-11-19T00:01:33.627Z,6.5
2023-11-19T00:04:35.523Z,7.8
2023-11-19T00:07:37.546Z,7.1
2023-11-19T00:10:39.416Z,7.8
2023-11-19T00:13:41.450Z,7.5
2023-11-19T00:16:43.406Z,7.5
2023-11-19T00:19:45.351Z,6.8
2023-11-19T00:22:49.984Z,7.3
2023-11-19T00:25:49.317Z,7.8
2023-11-19T00:28:51.196Z,7.9
2023-11-19T00:31:53.375Z,7.6
2023-11-19T00:34:55.192Z,7.5
2023-11-19T00:37:57.156Z,8.2
2023-11-19T00:40:59.089Z,8.7
2023-11-19T00:44:01.055Z,7.4
2023-11-19T00:47:02.997Z,8.6
2023-11-19T00:50:04.922Z,8.9
2023-11-19T00:53:06.899Z,8.3
2023-11-19T00:56:08.884Z,8.1
2023-11-19T00:59:10.888Z,8.1
2023-11-19T01:02:12.913Z,8.3
2023-11-19T01:05:14.869Z,7.3
2023-11-19T01:08:16.789Z,7.6
2023-11-19T01:11:18.754Z,8.2
2023-11-19T01:14:20.756Z,7.6
2023-11-19T01:17:22.690Z,7.4
2023-11-19T01:20:24.606Z,7.3
2023-11-19T01:23:26.596Z,7.2
2023-11-19T01:26:28.493Z,8.7
2023-11-19T01:29:30.518Z,9
2023-11-19T01:32:32.473Z,8.7
2023-11-19T01:35:34.389Z,8.2
2023-11-19T01:38:36.385Z,8.3
2023-11-19T01:41:38.361Z,7.7
2023-11-19T01:44:40.379Z,7.7
2023-11-19T01:47:42.374Z,7
2023-11-19T01:50:44.286Z,7.2
2023-11-19T01:53:46.355Z,8.1
2023-11-19T01:56:48.200Z,7.1
2023-11-19T01:59:50.162Z,7.5
2023-11-19T02:02:52.208Z,7.4
2023-11-19T02:05:54.100Z,8.7
2023-11-19T02:08:56.067Z,7
2023-11-19T02:11:57.994Z,6.7
2023-11-19T02:14:59.961Z,6.4
2023-11-19T02:18:02.037Z,6.6
2023-11-19T02:21:03.948Z,6.3
2023-11-19T02:27:07.850Z,7.2
2023-11-19T02:30:10.058Z,7.8
2023-11-19T02:33:11.894Z,6.5
2023-11-19T02:36:13.781Z,7.4
2023-11-19T02:39:15.766Z,6.3
2023-11-19T02:42:17.753Z,7.1
2023-11-19T02:45:19.665Z,6.4
2023-11-19T02:48:21.672Z,6.3
2023-11-19T02:51:23.618Z,5.8
2023-11-19T02:54:25.509Z,7.7
2023-11-19T02:57:27.462Z,6.4
2023-11-19T03:00:29.416Z,6.2
2023-11-19T03:03:31.455Z,5.6
2023-11-19T03:06:33.489Z,5.6
2023-11-19T03:09:35.347Z,5.6
2023-11-19T03:12:37.280Z,6.4
2023-11-19T03:15:39.260Z,8.9
2023-11-19T03:18:41.172Z,6.3
2023-11-19T03:21:43.449Z,6.7
2023-11-19T03:24:45.157Z,5.4
2023-11-19T03:27:47.144Z,7.3
2023-11-19T03:30:49.017Z,6.7
2023-11-19T03:33:51.034Z,6.3
2023-11-19T03:36:53.168Z,5.3
2023-11-19T03:39:55.005Z,5.3
2023-11-19T03:42:56.862Z,5
2023-11-19T03:45:58.859Z,5.3
2023-11-19T03:49:00.847Z,5.5
2023-11-19T03:52:02.811Z,6.1
2023-11-19T03:55:04.766Z,5.2
2023-11-19T03:58:06.840Z,4.7
2023-11-19T04:01:08.757Z,5
2023-11-19T04:04:10.757Z,5.1
2023-11-19T04:07:12.657Z,5.3
2023-11-19T04:10:14.587Z,4.4
2023-11-19T04:13:16.556Z,4.8
2023-11-19T04:16:18.509Z,5.1
2023-11-19T04:19:20.493Z,4.5
2023-11-19T04:22:22.478Z,4.8
2023-11-19T04:25:24.448Z,4.1
2023-11-19T04:28:26.500Z,4.8
2023-11-19T04:31:28.398Z,4.4
2023-11-19T04:34:30.468Z,4.3
2023-11-19T04:37:32.388Z,3.5
2023-11-19T04:40:34.319Z,3.4
2023-11-19T04:43:36.306Z,3.8
2023-11-19T04:46:38.316Z,3.5
2023-11-19T04:49:40.303Z,3.4
2023-11-19T04:52:42.220Z,3.6
2023-11-19T04:55:44.246Z,3.6
2023-11-19T04:58:46.250Z,3.6
2023-11-19T05:01:48.307Z,4.6
2023-11-19T05:04:50.159Z,4
2023-11-19T05:07:52.042Z,4.7
2023-11-19T05:10:54.051Z,4.9
2023-11-19T05:13:56.027Z,5.2
2023-11-19T05:16:57.982Z,4.4
2023-11-19T05:19:59.934Z,5
2023-11-19T05:23:01.977Z,4.4
2023-11-19T05:26:05.153Z,4.4
2023-11-19T05:29:05.849Z,4.1
2023-11-19T05:32:07.848Z,4.2
2023-11-19T05:35:09.809Z,3.7
2023-11-19T05:38:11.712Z,5.1
2023-11-19T05:41:13.669Z,4.2
2023-11-19T05:44:15.642Z,4.4
2023-11-19T05:47:17.620Z,4.7
2023-11-19T05:50:19.568Z,5
2023-11-19T05:53:21.458Z,4
2023-11-19T05:56:23.477Z,5.1
2023-11-19T05:59:25.376Z,5.2
2023-11-19T06:02:27.336Z,4.9
2023-11-19T06:05:29.326Z,4.3
2023-11-19T06:08:31.326Z,4.7
2023-11-19T06:11:33.235Z,4.2
2023-11-19T06:14:35.262Z,3.8
2023-11-19T06:17:37.308Z,4.7
2023-11-19T06:23:41.136Z,4.8
2023-11-19T06:26:43.047Z,4.2
2023-11-19T06:29:44.992Z,3.9
2023-11-19T06:32:46.979Z,3.6
2023-11-19T06:35:48.822Z,3.9
2023-11-19T06:38:50.812Z,4.5
2023-11-19T06:41:52.725Z,4
2023-11-19T06:44:54.672Z,3.6
2023-11-19T06:47:56.740Z,3.5
2023-11-19T06:50:58.585Z,3.7
2023-11-19T06:54:00.527Z,3.4
2023-11-19T06:57:02.497Z,5.2
2023-11-19T07:00:04.414Z,3.9
2023-11-19T07:03:06.533Z,3.5
2023-11-19T07:06:08.352Z,3.6
2023-11-19T07:09:10.315Z,4.4
2023-11-19T07:12:12.256Z,3.9
2023-11-19T07:15:14.240Z,4.2
2023-11-19T07:18:16.237Z,4.6
2023-11-19T07:21:20.189Z,4.5
2023-11-19T07:24:20.298Z,4
2023-11-19T07:27:21.990Z,4.6
2023-11-19T07:30:24.002Z,5.1
2023-11-19T07:33:25.960Z,3.9
2023-11-19T07:36:27.872Z,4.9
2023-11-19T07:39:29.842Z,4.3
2023-11-19T07:42:31.837Z,3.9
2023-11-19T07:45:33.738Z,4
2023-11-19T07:48:35.738Z,4.7
2023-11-19T07:51:37.677Z,4
2023-11-19T07:54:39.656Z,4.9
2023-11-19T07:57:41.528Z,4.1
2023-11-19T08:00:43.466Z,4.2
2023-11-19T08:06:47.365Z,4.4
2023-11-19T08:09:49.402Z,3.7
2023-11-19T08:12:51.404Z,5.2
2023-11-19T08:15:53.315Z,3.9
2023-11-19T08:18:55.281Z,3.6
2023-11-19T08:21:57.261Z,3.5
2023-11-19T08:24:59.133Z,4.1
2023-11-19T08:28:01.091Z,3.8
2023-11-19T08:31:03.052Z,3.7
2023-11-19T08:34:05.014Z,4.1
2023-11-19T08:37:06.964Z,4.5
2023-11-19T08:40:09.152Z,4.2
2023-11-19T08:43:10.823Z,3.8
2023-11-19T08:46:12.790Z,4
2023-11-19T08:49:14.737Z,3.7
2023-11-19T08:52:16.690Z,3.1
2023-11-19T08:55:18.729Z,3.2
2023-11-19T08:58:20.598Z,3.9
2023-11-19T09:01:22.623Z,3.6
2023-11-19T09:04:24.638Z,3
2023-11-19T09:07:26.669Z,3.1
2023-11-19T09:10:28.494Z,3.4
2023-11-19T09:13:30.454Z,3.3
2023-11-19T09:16:32.432Z,3.5
2023-11-19T09:19:34.415Z,2.6
2023-11-19T09:22:36.796Z,2.4
2023-11-19T09:28:40.668Z,2
2023-11-19T09:31:42.642Z,2.5
2023-11-19T09:35:04.866Z,2.3
2023-11-19T09:37:46.737Z,1.8
2023-11-19T09:40:48.780Z,2
2023-11-19T09:43:50.667Z,2.1
2023-11-19T09:46:52.623Z,3.2
2023-11-19T09:49:55.572Z,2.8
2023-11-19T09:52:56.530Z,2.4
2023-11-19T09:55:58.511Z,2.4
2023-11-19T09:59:00.956Z,2.9
2023-11-19T10:02:03.114Z,2.5
2023-11-19T10:05:05.150Z,2.1
2023-11-19T10:08:07.028Z,1.7
2023-11-19T10:11:08.960Z,1.7
2023-11-19T10:14:11.002Z,1.6
2023-11-19T10:17:18.969Z,1.4
2023-11-19T10:20:20.941Z,1.9
2023-11-19T10:23:22.951Z,1.6
2023-11-19T10:26:24.914Z,1.6
2023-11-19T10:29:26.859Z,1.6
2023-11-19T10:32:28.828Z,1.7
2023-11-19T10:35:30.739Z,1.3
2023-11-19T10:41:34.692Z,1.7
2023-11-19T10:44:36.593Z,1.5
2023-11-19T10:47:38.970Z,1.6
2023-11-19T10:50:40.539Z,1.2
2023-11-19T10:53:42.474Z,1.9
2023-11-19T10:56:44.585Z,1.5
2023-11-19T10:59:46.330Z,1.5
2023-11-19T11:02:48.269Z,1.3
2023-11-19T11:05:50.261Z,1.5
2023-11-19T11:11:54.169Z,1.6
2023-11-19T11:14:56.140Z,1.5
2023-11-19T11:17:58.185Z,1.3
2023-11-19T11:21:00.088Z,1.4
2023-11-19T11:24:01.969Z,1.3
2023-11-19T11:27:04.011Z,1.3
2023-11-19T11:30:05.957Z,1.4
2023-11-19T11:33:08.000Z,1.1
2023-11-19T11:36:09.853Z,1.5
2023-11-19T11:39:11.776Z,1.1
2023-11-19T11:42:13.705Z,1.6
2023-11-19T11:45:15.864Z,1.5
2023-11-19T11:48:17.613Z,1.6
2023-11-19T11:51:19.577Z,1.6
2023-11-19T11:54:21.517Z,1.4
2023-11-19T11:57:23.489Z,1.9
2023-11-19T12:00:25.505Z,1.6
2023-11-19T12:03:27.425Z,1.8
2023-11-19T12:06:29.352Z,1.7
2023-11-19T12:09:31.291Z,1.9
2023-11-19T12:12:33.322Z,1.7
2023-11-19T12:15:35.243Z,1.6
2023-11-19T12:18:37.157Z,1.5
2023-11-19T12:21:39.342Z,1.8
2023-11-19T12:24:41.131Z,1.6
2023-11-19T12:27:43.016Z,1.4
2023-11-19T12:30:45.090Z,2
2023-11-19T12:33:46.904Z,1.5
2023-11-19T12:36:48.877Z,1.6
2023-11-19T12:39:50.853Z,1.7
2023-11-19T12:42:52.766Z,1.4
2023-11-19T12:45:54.838Z,1.3
2023-11-19T12:48:56.727Z,1.4
2023-11-19T12:51:58.727Z,1.3
2023-11-19T12:55:00.654Z,1.5
2023-11-19T12:58:02.652Z,1.8
2023-11-19T13:01:05.535Z,1.6
2023-11-19T13:04:06.509Z,1.2
2023-11-19T13:07:12.093Z,1.2
2023-11-19T13:10:10.423Z,1.4
2023-11-19T13:13:12.357Z,1.5
2023-11-19T13:16:14.477Z,1.5
2023-11-19T13:19:17.793Z,1.1
2023-11-19T13:22:18.184Z,1.1
2023-11-19T13:25:20.358Z,1
2023-11-19T13:28:22.191Z,1.3
2023-11-19T13:31:24.212Z,1.6
2023-11-19T13:34:26.108Z,1.5
2023-11-19T13:37:27.986Z,1.3
2023-11-19T13:40:30.043Z,1.7
2023-11-19T13:43:31.933Z,1.5
2023-11-19T13:46:33.980Z,1.7
2023-11-19T13:49:35.863Z,1.2
2023-11-19T13:52:37.825Z,1.3
2023-11-19T13:55:39.811Z,1.5
2023-11-19T13:58:41.745Z,1.3
2023-11-19T14:01:43.666Z,1.4
2023-11-19T14:04:45.775Z,1.4
2023-11-19T14:07:47.597Z,1.5
2023-11-19T14:10:49.625Z,1.4
2023-11-19T14:13:51.679Z,1.4
2023-11-19T14:16:53.665Z,1.2
2023-11-19T14:19:55.603Z,1.3
2023-11-19T14:22:57.523Z,1.1
2023-11-19T14:25:59.476Z,1.6
2023-11-19T14:29:01.415Z,1.7
2023-11-19T14:32:03.391Z,1.2
2023-11-19T14:35:05.369Z,1
2023-11-19T14:38:07.338Z,1.2
2023-11-19T14:41:09.312Z,0.9
2023-11-19T14:44:11.296Z,1.1
2023-11-19T14:47:13.285Z,1.1
2023-11-19T14:50:15.206Z,1.4
2023-11-19T14:53:17.162Z,1.2
2023-11-19T14:56:19.094Z,1.3
2023-11-19T14:59:20.988Z,1.5
2023-11-19T15:02:23.044Z,1.4
2023-11-19T15:05:25.004Z,1.1
2023-11-19T15:08:26.881Z,1.3
2023-11-19T15:11:28.980Z,1.6
2023-11-19T15:14:30.856Z,1.5
2023-11-19T15:17:32.749Z,1.5
2023-11-19T15:20:34.726Z,1.6
2023-11-19T15:23:36.700Z,1.3
2023-11-19T15:26:38.640Z,1.4
2023-11-19T15:29:40.597Z,1.2
2023-11-19T15:32:42.676Z,1.8
2023-11-19T15:35:44.511Z,1.6
2023-11-19T15:41:48.744Z,1.3
2023-11-19T15:47:52.675Z,1.6
2023-11-19T15:50:54.617Z,1.2
2023-11-19T15:53:56.556Z,1.3
2023-11-19T15:56:58.468Z,1.5
2023-11-19T16:00:00.476Z,1.4
2023-11-19T16:03:02.702Z,1.6
2023-11-19T16:06:07.325Z,1.4
2023-11-19T16:09:06.335Z,1.5
2023-11-19T16:12:08.288Z,1.2
2023-11-19T16:15:10.202Z,1.7
2023-11-19T16:18:12.345Z,1.4
2023-11-19T16:21:14.223Z,1.3
2023-11-19T16:24:16.217Z,1.4
2023-11-19T16:30:33.237Z,1.3
2023-11-19T16:33:28.758Z,1.2
2023-11-19T16:36:27.061Z,1.6
2023-11-19T16:39:29.824Z,1.7
2023-11-19T16:42:31.726Z,1.5
2023-11-19T16:45:34.025Z,1.7
2023-11-19T16:48:35.877Z,1.5
2023-11-19T16:51:37.677Z,1.7
2023-11-19T16:54:39.698Z,1.7
2023-11-19T16:57:44.472Z,1.8
2023-11-19T17:00:46.446Z,2.6
2023-11-19T17:03:48.439Z,3.7
2023-11-19T17:06:50.410Z,3.1
2023-11-19T17:09:52.353Z,2.9
2023-11-19T17:12:54.344Z,2.2
2023-11-19T17:15:56.321Z,2.2
2023-11-19T17:18:58.358Z,2.2
2023-11-19T17:22:00.240Z,2.3
2023-11-19T17:25:02.195Z,1.7
2023-11-19T17:28:04.276Z,2.4
2023-11-19T17:31:06.239Z,2.7
2023-11-19T17:34:08.124Z,2.6
2023-11-19T17:37:10.147Z,2.3
2023-11-19T17:40:12.164Z,2.2
2023-11-19T17:43:17.184Z,1.8
2023-11-19T17:46:19.204Z,1.9
2023-11-19T17:49:21.100Z,2.3
2023-11-19T17:52:23.020Z,2.6
2023-11-19T17:55:25.044Z,2
2023-11-19T17:58:27.060Z,2
2023-11-19T18:01:29.016Z,1.6
2023-11-19T18:04:31.035Z,1.6
2023-11-19T18:07:32.994Z,1.4
2023-11-19T18:10:34.939Z,2.3
2023-11-19T18:13:37.107Z,2.1
2023-11-19T18:16:39.334Z,2.1
2023-11-19T18:19:41.261Z,1.8
2023-11-19T18:22:43.130Z,2
2023-11-19T18:25:45.267Z,2.3
2023-11-19T18:28:47.031Z,2.3
2023-11-19T18:31:49.051Z,2.8
2023-11-19T18:34:50.962Z,2.2
2023-11-19T18:37:53.997Z,3.3
2023-11-19T18:40:55.933Z,3.1
2023-11-19T18:43:57.844Z,3.5
2023-11-19T18:46:59.865Z,2.7
2023-11-19T18:50:01.916Z,2.6
2023-11-19T18:53:04.173Z,4.7
2023-11-19T18:56:05.759Z,3.2
2023-11-19T18:59:07.721Z,2.9
2023-11-19T19:02:09.605Z,3.4
2023-11-19T19:05:11.742Z,4.2
2023-11-19T19:08:13.575Z,3.6
2023-11-19T19:11:15.534Z,3
2023-11-19T19:14:17.446Z,3.8
2023-11-19T19:17:19.472Z,2.8
2023-11-19T19:20:21.456Z,2.7
2023-11-19T19:23:23.413Z,2.8
2023-11-19T19:26:25.374Z,2.5
2023-11-19T19:29:27.242Z,2.4
2023-11-19T19:32:29.301Z,2
2023-11-19T19:35:31.232Z,2.4
2023-11-19T19:38:33.219Z,2.1
2023-11-19T19:41:35.178Z,2.3
2023-11-19T19:44:37.102Z,2.3
2023-11-19T19:47:39.064Z,2
2023-11-19T19:50:41.005Z,1.6
2023-11-19T19:53:43.163Z,1.6
2023-11-19T19:56:44.899Z,1.7
2023-11-19T19:59:46.866Z,2
2023-11-19T20:02:48.959Z,2.1
2023-11-19T20:05:50.820Z,1.9
2023-11-19T20:08:52.763Z,3
2023-11-19T20:11:54.792Z,2.9
2023-11-19T20:17:58.907Z,2
2023-11-19T20:21:00.769Z,2.7
2023-11-19T20:24:02.793Z,2.4
2023-11-19T20:27:04.773Z,2.7
2023-11-19T20:30:06.669Z,2.7
2023-11-19T20:33:08.664Z,1.8
2023-11-19T20:36:10.647Z,2.5
2023-11-19T20:39:12.549Z,1.9
2023-11-19T20:42:14.512Z,1.9
2023-11-19T20:45:16.491Z,2.1
2023-11-19T20:48:18.464Z,5.9
2023-11-19T20:51:25.226Z,4
2023-11-19T20:57:24.335Z,3
2023-11-19T21:00:26.328Z,4.3
2023-11-19T21:03:28.309Z,2.9
2023-11-19T21:06:30.210Z,3.2
2023-11-19T21:09:32.181Z,2.8
2023-11-19T21:12:34.646Z,1.9
2023-11-19T21:15:39.419Z,1.9
2023-11-19T21:18:38.121Z,2.6
2023-11-19T21:21:39.985Z,2.2
2023-11-19T21:24:41.931Z,1.7
2023-11-19T21:27:43.850Z,3.3
2023-11-19T21:30:45.819Z,2.8
2023-11-19T21:33:47.839Z,1.8
2023-11-19T21:36:49.785Z,4.1
2023-11-19T21:39:51.704Z,4
2023-11-19T21:42:53.659Z,4.4
2023-11-19T21:45:55.683Z,3.2
2023-11-19T21:48:57.534Z,2.9
2023-11-19T21:51:59.562Z,2.5
2023-11-19T21:55:01.509Z,2.5
2023-11-19T21:58:03.484Z,2.2
2023-11-19T22:01:05.480Z,2.6
2023-11-19T22:04:07.420Z,2.2
2023-11-19T22:07:09.343Z,2
2023-11-19T22:10:11.235Z,2.1
2023-11-19T22:13:13.196Z,1.8
2023-11-19T22:16:15.206Z,1.7
2023-11-19T22:19:17.151Z,1.9
2023-11-19T22:22:19.049Z,1.6
2023-11-19T22:25:21.087Z,2.9
2023-11-19T22:28:22.985Z,1.8
2023-11-19T22:31:25.391Z,2.1
2023-11-19T22:34:26.914Z,2
2023-11-19T22:37:28.857Z,3.2
2023-11-19T22:40:30.856Z,3
2023-11-19T22:43:32.874Z,3
2023-11-19T22:46:34.817Z,2.9
2023-11-19T22:49:36.724Z,2.9
2023-11-19T22:52:38.713Z,2.8
2023-11-19T22:55:40.749Z,2
2023-11-19T22:58:42.648Z,3
2023-11-19T23:01:44.691Z,2.8
2023-11-19T23:04:46.645Z,2.3
2023-11-19T23:07:48.534Z,4.3
2023-11-19T23:10:50.537Z,2.6
2023-11-19T23:13:52.439Z,2.2
2023-11-19T23:16:54.430Z,2.5
2023-11-19T23:20:03.457Z,2.4
2023-11-19T23:22:58.321Z,2.8
2023-11-19T23:26:00.285Z,2.2
2023-11-19T23:29:06.367Z,3.4
2023-11-19T23:32:04.284Z,2.6
2023-11-19T23:35:06.233Z,2.4
2023-11-19T23:38:08.191Z,2.7
2023-11-19T23:41:10.160Z,2.9
2023-11-19T23:44:12.108Z,2.4
2023-11-19T23:47:14.110Z,3.6
2023-11-19T23:50:16.057Z,2.3
2023-11-19T23:53:17.952Z,2.1
2023-11-19T23:56:19.927Z,2
2023-11-19T23:59:21.932Z,2.3
